createdAt,value
2019-01-21T00:02:08.849Z,81.31
2019-01-21T00:04:40.308Z,81.48
2019-01-21T00:07:11.542Z,81.33
2019-01-21T00:09:42.886Z,81.20
2019-01-21T00:12:16.976Z,81.21
2019-01-21T00:14:50.698Z,81.26
2019-01-21T00:19:54.901Z,81.96
2019-01-21T00:22:26.171Z,82.18
2019-01-21T00:24:57.734Z,82.18
2019-01-21T00:27:30.705Z,82.18
2019-01-21T00:30:02.248Z,82.37
2019-01-21T00:32:34.350Z,82.63
2019-01-21T00:35:06.699Z,82.56
2019-01-21T00:37:38.023Z,82.87
2019-01-21T00:40:10.569Z,83.04
2019-01-21T00:42:42.139Z,83.25
2019-01-21T00:45:13.628Z,83.30
2019-01-21T00:47:45.271Z,83.56
2019-01-21T00:50:16.786Z,83.54
2019-01-21T00:52:48.229Z,83.26
2019-01-21T00:55:20.495Z,83.24
2019-01-21T00:57:51.593Z,83.71
2019-01-21T01:00:24.805Z,84.05
2019-01-21T01:02:56.387Z,83.98
2019-01-21T01:05:27.701Z,83.89
2019-01-21T01:07:58.860Z,83.68
2019-01-21T01:10:30.892Z,83.57
2019-01-21T01:13:09.098Z,83.26
2019-01-21T01:15:40.324Z,83.07
2019-01-21T01:18:11.417Z,82.76
2019-01-21T01:20:42.607Z,82.67
2019-01-21T01:23:13.990Z,82.30
2019-01-21T01:25:45.147Z,82.43
2019-01-21T01:28:16.600Z,81.92
2019-01-21T01:30:47.979Z,82.47
2019-01-21T01:33:19.232Z,83.06
2019-01-21T01:35:50.304Z,83.23
2019-01-21T01:38:21.517Z,84.15
2019-01-21T01:40:52.853Z,83.63
2019-01-21T01:43:24.242Z,84.10
2019-01-21T01:45:55.933Z,83.81
2019-01-21T01:48:27.241Z,84.11
2019-01-21T01:50:59.804Z,85.69
2019-01-21T01:53:31.443Z,85.77
2019-01-21T01:56:03.003Z,85.26
2019-01-21T01:58:34.217Z,84.86
2019-01-21T02:01:06.391Z,84.52
2019-01-21T02:03:37.698Z,84.64
2019-01-21T02:06:08.765Z,84.27
2019-01-21T02:08:40.144Z,84.32
2019-01-21T02:11:11.242Z,84.43
2019-01-21T02:13:42.835Z,84.97
2019-01-21T02:16:16.053Z,84.45
2019-01-21T02:18:47.354Z,84.19
2019-01-21T02:21:20.972Z,84.15
2019-01-21T02:23:55.938Z,85.10
2019-01-21T02:26:30.251Z,85.58
2019-01-21T02:29:07.795Z,85.72
2019-01-21T02:32:09.702Z,86.99
2019-01-21T02:35:17.077Z,87.46
2019-01-21T02:38:20.604Z,87.36
2019-01-21T02:41:35.419Z,87.92
2019-01-21T02:44:33.761Z,88.39
2019-01-21T02:47:50.054Z,88.35
2019-01-21T02:50:46.248Z,88.62
2019-01-21T02:53:43.851Z,89.61
2019-01-21T02:56:56.713Z,89.45
2019-01-21T02:59:52.458Z,89.52
2019-01-21T03:02:48.873Z,89.26
2019-01-21T03:06:15.989Z,89.74
2019-01-21T03:09:14.002Z,89.71
2019-01-21T03:12:31.290Z,89.79
2019-01-21T03:15:46.315Z,89.73
2019-01-21T03:19:02.635Z,92.74
2019-01-21T03:22:25.942Z,93.88
2019-01-21T03:25:36.971Z,94.66
2019-01-21T03:28:45.353Z,95.07
2019-01-21T03:31:52.624Z,95.25
2019-01-21T03:35:03.504Z,95.14
2019-01-21T03:38:24.165Z,95.63
2019-01-21T03:41:26.353Z,95.22
2019-01-21T03:44:20.652Z,95.24
2019-01-21T03:47:42.851Z,95.41
2019-01-21T03:50:39.866Z,95.41
2019-01-21T03:53:54.897Z,94.78
2019-01-21T03:56:59.550Z,94.44
2019-01-21T03:59:56.689Z,94.71
2019-01-21T04:03:05.547Z,94.60
2019-01-21T04:06:10.007Z,94.64
2019-01-21T04:09:36.528Z,94.04
2019-01-21T04:12:50.528Z,94.21
2019-01-21T04:15:39.404Z,93.69
2019-01-21T04:18:40.030Z,93.94
2019-01-21T04:21:56.765Z,93.71
2019-01-21T04:25:11.956Z,93.51
2019-01-21T04:28:20.075Z,93.34
2019-01-21T04:31:41.396Z,93.37
2019-01-21T04:35:02.728Z,92.81
2019-01-21T04:38:05.370Z,92.91
2019-01-21T04:41:13.341Z,92.83
2019-01-21T04:44:25.905Z,92.61
2019-01-21T04:47:17.787Z,92.34
2019-01-21T04:50:35.680Z,92.76
2019-01-21T04:53:37.932Z,92.55
2019-01-21T04:56:38.424Z,92.53
2019-01-21T04:59:55.710Z,92.69
2019-01-21T05:03:17.083Z,92.65
2019-01-21T05:06:56.829Z,92.11
2019-01-21T05:10:11.964Z,91.64
2019-01-21T05:13:08.370Z,91.67
2019-01-21T05:16:15.383Z,91.96
2019-01-21T05:19:17.893Z,91.92
2019-01-21T05:22:27.534Z,91.92
2019-01-21T05:25:48.440Z,91.96
2019-01-21T05:29:08.808Z,91.87
2019-01-21T05:32:17.731Z,91.30
2019-01-21T05:35:23.068Z,91.34
2019-01-21T05:38:31.585Z,91.23
2019-01-21T05:41:46.413Z,91.29
2019-01-21T05:44:59.441Z,91.11
2019-01-21T05:48:17.158Z,91.19
2019-01-21T05:51:43.589Z,91.30
2019-01-21T05:54:58.494Z,91.12
2019-01-21T05:58:02.307Z,91.30
2019-01-21T06:01:05.002Z,91.35
2019-01-21T06:04:13.811Z,91.35
2019-01-21T06:07:13.626Z,91.34
2019-01-21T06:10:14.614Z,91.40
2019-01-21T06:13:22.034Z,91.53
2019-01-21T06:16:33.153Z,91.35
2019-01-21T06:19:48.175Z,91.05
2019-01-21T06:22:51.381Z,90.81
2019-01-21T06:25:55.657Z,90.98
2019-01-21T06:28:59.422Z,91.31
2019-01-21T06:32:06.646Z,91.48
2019-01-21T06:35:30.463Z,91.46
2019-01-21T06:38:42.465Z,91.59
2019-01-21T06:41:42.718Z,91.63
2019-01-21T06:44:41.836Z,91.40
2019-01-21T06:47:54.782Z,91.21
2019-01-21T06:50:50.572Z,90.63
2019-01-21T06:53:57.842Z,90.75
2019-01-21T06:57:00.794Z,90.76
2019-01-21T07:00:17.555Z,90.80
2019-01-21T07:03:30.255Z,90.56
2019-01-21T07:06:40.897Z,90.67
2019-01-21T07:09:46.842Z,90.81
2019-01-21T07:13:05.163Z,90.74
2019-01-21T07:16:13.439Z,90.56
2019-01-21T07:19:22.805Z,90.58
2019-01-21T07:22:17.193Z,90.57
2019-01-21T07:25:21.274Z,90.51
2019-01-21T07:28:28.450Z,90.50
2019-01-21T07:31:37.370Z,90.75
2019-01-21T07:35:10.424Z,90.50
2019-01-21T07:38:11.960Z,90.32
2019-01-21T07:41:32.391Z,90.61
2019-01-21T07:44:36.783Z,90.47
2019-01-21T07:47:55.042Z,90.42
2019-01-21T07:50:56.184Z,90.15
2019-01-21T07:54:17.265Z,89.65
2019-01-21T07:57:25.963Z,89.95
2019-01-21T08:00:12.036Z,90.30
2019-01-21T08:03:25.781Z,90.38
2019-01-21T08:06:32.583Z,90.28
2019-01-21T08:09:34.620Z,90.28
2019-01-21T08:12:31.750Z,90.36
2019-01-21T08:15:36.581Z,90.45
2019-01-21T08:18:59.119Z,90.21
2019-01-21T08:22:05.241Z,90.46
2019-01-21T08:25:15.995Z,90.38
2019-01-21T08:28:17.312Z,90.41
2019-01-21T08:31:25.978Z,90.17
2019-01-21T08:34:44.140Z,90.30
2019-01-21T08:38:08.341Z,89.64
2019-01-21T08:41:17.729Z,89.91
2019-01-21T08:44:12.644Z,89.94
2019-01-21T08:47:11.673Z,90.14
2019-01-21T08:50:32.638Z,89.99
2019-01-21T08:54:05.700Z,90.42
2019-01-21T08:57:08.739Z,90.53
2019-01-21T09:00:08.457Z,90.42
2019-01-21T09:03:21.715Z,90.59
2019-01-21T09:06:34.782Z,90.58
2019-01-21T09:09:45.044Z,90.62
2019-01-21T09:13:11.924Z,90.03
2019-01-21T09:15:55.264Z,89.80
2019-01-21T09:19:10.254Z,89.50
2019-01-21T09:22:31.003Z,90.04
2019-01-21T09:25:32.743Z,90.10
2019-01-21T09:28:43.959Z,90.29
2019-01-21T09:31:46.645Z,90.27
2019-01-21T09:35:03.396Z,90.20
2019-01-21T09:38:21.390Z,89.72
2019-01-21T09:41:36.333Z,89.84
2019-01-21T09:44:38.156Z,90.69
2019-01-21T09:47:07.670Z,91.14
2019-01-21T09:49:37.153Z,91.20
2019-01-21T09:52:10.452Z,90.65
2019-01-21T09:54:42.812Z,90.67
2019-01-21T09:57:21.435Z,89.96
2019-01-21T09:59:59.823Z,89.82
2019-01-21T10:02:50.959Z,88.73
2019-01-21T10:05:23.851Z,88.70
2019-01-21T10:08:21.982Z,88.42
2019-01-21T10:11:40.784Z,87.90
2019-01-21T10:15:01.619Z,87.65
2019-01-21T10:18:17.566Z,88.13
2019-01-21T10:21:56.708Z,88.40
2019-01-21T10:25:08.631Z,87.90
2019-01-21T10:28:11.473Z,88.11
2019-01-21T10:31:04.523Z,87.98
2019-01-21T10:34:33.300Z,88.50
2019-01-21T10:37:41.308Z,88.62
2019-01-21T10:40:54.091Z,88.31
2019-01-21T10:43:53.253Z,88.07
2019-01-21T10:46:55.117Z,88.42
2019-01-21T10:50:01.781Z,88.69
2019-01-21T10:52:54.852Z,88.87
2019-01-21T10:56:00.540Z,89.02
2019-01-21T10:59:15.554Z,88.60
2019-01-21T11:02:20.695Z,88.61
2019-01-21T11:05:15.735Z,88.58
2019-01-21T11:08:30.675Z,88.62
2019-01-21T11:12:03.761Z,89.32
2019-01-21T11:14:56.421Z,89.02
2019-01-21T11:18:05.676Z,89.66
2019-01-21T11:21:12.134Z,89.50
2019-01-21T11:24:48.540Z,89.26
2019-01-21T11:27:56.273Z,89.34
2019-01-21T11:30:55.274Z,88.88
2019-01-21T11:34:19.617Z,87.80
2019-01-21T11:37:03.989Z,87.21
2019-01-21T11:40:30.241Z,87.37
2019-01-21T11:43:38.185Z,87.91
2019-01-21T11:46:34.237Z,88.28
2019-01-21T11:49:39.099Z,87.22
2019-01-21T11:52:38.686Z,87.55
2019-01-21T11:55:54.904Z,87.96
2019-01-21T11:59:15.886Z,88.25
2019-01-21T12:02:33.118Z,88.13
2019-01-21T12:05:48.275Z,86.55
2019-01-21T12:09:01.891Z,86.78
2019-01-21T12:12:09.513Z,87.49
2019-01-21T12:15:20.308Z,87.06
2019-01-21T12:18:21.674Z,86.69
2019-01-21T12:21:36.075Z,88.24
2019-01-21T12:24:20.321Z,87.71
2019-01-21T12:27:27.105Z,86.46
2019-01-21T12:30:37.876Z,86.65
2019-01-21T12:33:40.872Z,85.77
2019-01-21T12:36:41.489Z,86.21
2019-01-21T12:39:43.320Z,86.53
2019-01-21T12:42:57.507Z,86.72
2019-01-21T12:45:57.050Z,86.60
2019-01-21T12:49:00.945Z,86.70
2019-01-21T12:52:18.658Z,85.91
2019-01-21T12:55:39.618Z,85.01
2019-01-21T12:58:35.938Z,84.89
2019-01-21T13:01:48.701Z,84.47
2019-01-21T13:05:00.204Z,84.40
2019-01-21T13:08:11.912Z,84.32
2019-01-21T13:11:30.229Z,82.86
2019-01-21T13:14:26.495Z,82.25
2019-01-21T13:17:25.956Z,83.03
2019-01-21T13:20:42.580Z,82.41
2019-01-21T13:23:24.261Z,82.47
2019-01-21T13:26:35.200Z,83.43
2019-01-21T13:29:55.464Z,83.91
2019-01-21T13:33:00.054Z,83.75
2019-01-21T13:36:24.270Z,83.56
2019-01-21T13:39:12.639Z,83.70
2019-01-21T13:41:49.777Z,83.82
2019-01-21T13:44:47.453Z,83.45
2019-01-21T13:47:49.888Z,83.31
2019-01-21T13:50:30.226Z,81.85
2019-01-21T13:53:45.126Z,82.59
2019-01-21T13:57:09.383Z,82.39
2019-01-21T14:00:24.630Z,82.72
2019-01-21T14:03:22.931Z,82.29
2019-01-21T14:06:29.954Z,82.03
2019-01-21T14:09:54.329Z,82.02
2019-01-21T14:12:35.522Z,82.03
2019-01-21T14:15:43.318Z,82.07
2019-01-21T14:18:54.451Z,81.16
2019-01-21T14:22:18.891Z,82.25
2019-01-21T14:25:23.693Z,81.58
2019-01-21T14:28:24.130Z,81.23
2019-01-21T14:31:36.692Z,81.41
2019-01-21T14:34:49.630Z,81.11
2019-01-21T14:37:38.103Z,81.49
2019-01-21T14:40:40.850Z,82.10
2019-01-21T14:43:52.384Z,81.81
2019-01-21T14:47:15.761Z,81.89
2019-01-21T14:50:20.806Z,81.88
2019-01-21T14:53:13.122Z,82.45
2019-01-21T14:56:02.735Z,82.56
2019-01-21T14:59:19.774Z,82.61
2019-01-21T15:02:28.590Z,83.34
2019-01-21T15:05:35.965Z,83.62
2019-01-21T15:08:19.829Z,84.04
2019-01-21T15:11:39.412Z,84.26
2019-01-21T15:14:51.308Z,84.67
2019-01-21T15:17:50.752Z,84.91
2019-01-21T15:20:47.133Z,84.87
2019-01-21T15:23:49.707Z,85.25
2019-01-21T15:26:30.687Z,85.25
2019-01-21T15:29:38.789Z,85.39
2019-01-21T15:32:23.891Z,85.32
2019-01-21T15:35:24.291Z,85.32
2019-01-21T15:38:45.521Z,85.69
2019-01-21T15:42:02.193Z,85.90
2019-01-21T15:45:19.128Z,86.03
2019-01-21T15:48:25.817Z,86.54
2019-01-21T15:54:42.380Z,87.09
2019-01-21T15:57:47.134Z,87.25
2019-01-21T16:00:52.231Z,87.29
2019-01-21T16:03:42.739Z,87.31
2019-01-21T16:06:40.342Z,87.52
2019-01-21T16:09:59.964Z,87.38
2019-01-21T16:13:14.946Z,87.27
2019-01-21T16:16:31.736Z,87.28
2019-01-21T16:19:10.967Z,87.31
2019-01-21T16:22:18.438Z,87.23
2019-01-21T16:25:01.051Z,87.15
2019-01-21T16:28:07.803Z,87.10
2019-01-21T16:31:25.786Z,86.90
2019-01-21T16:34:38.602Z,86.90
2019-01-21T16:37:34.112Z,86.96
2019-01-21T16:41:00.570Z,87.00
2019-01-21T16:43:32.209Z,86.86
2019-01-21T16:46:03.626Z,86.98
2019-01-21T16:48:36.791Z,86.92
2019-01-21T16:51:07.927Z,86.87
2019-01-21T16:53:39.006Z,87.05
2019-01-21T16:56:11.086Z,87.04
2019-01-21T16:58:42.696Z,86.87
2019-01-21T17:01:15.072Z,86.55
2019-01-21T17:03:46.806Z,86.59
2019-01-21T17:06:19.204Z,86.52
2019-01-21T17:08:52.028Z,86.68
2019-01-21T17:11:24.547Z,86.78
2019-01-21T17:13:55.847Z,86.55
2019-01-21T17:16:26.886Z,86.44
2019-01-21T17:18:57.955Z,86.64
2019-01-21T17:21:29.008Z,86.58
2019-01-21T17:24:00.008Z,86.42
2019-01-21T17:26:31.019Z,86.20
2019-01-21T17:29:02.007Z,86.05
2019-01-21T17:31:33.225Z,85.98
2019-01-21T17:34:04.596Z,85.81
2019-01-21T17:36:35.768Z,85.85
2019-01-21T17:39:09.146Z,85.66
2019-01-21T17:41:40.482Z,85.48
2019-01-21T17:44:11.561Z,85.55
2019-01-21T17:46:42.652Z,85.86
2019-01-21T17:49:13.790Z,85.80
2019-01-21T17:51:44.867Z,85.93
2019-01-21T17:54:15.912Z,86.16
2019-01-21T17:56:49.801Z,86.22
2019-01-21T17:59:21.039Z,86.24
2019-01-21T18:01:52.832Z,86.13
2019-01-21T18:04:24.941Z,85.97
2019-01-21T18:06:56.281Z,85.90
2019-01-21T18:09:28.237Z,85.55
2019-01-21T18:11:59.459Z,85.60
2019-01-21T18:14:33.403Z,85.70
2019-01-21T18:17:07.351Z,85.84
2019-01-21T18:19:39.292Z,85.91
2019-01-21T18:22:12.561Z,86.02
2019-01-21T18:24:44.915Z,86.15
2019-01-21T18:27:20.865Z,86.22
2019-01-21T18:29:51.980Z,86.33
2019-01-21T18:32:24.062Z,86.37
2019-01-21T18:34:56.238Z,86.44
2019-01-21T18:37:27.384Z,86.60
2019-01-21T18:39:58.487Z,86.67
2019-01-21T18:42:29.815Z,86.77
2019-01-21T18:45:01.122Z,86.72
2019-01-21T18:47:32.134Z,86.70
2019-01-21T18:50:03.257Z,86.72
2019-01-21T18:52:34.255Z,86.58
2019-01-21T18:55:06.334Z,86.59
2019-01-21T18:57:37.362Z,86.49
2019-01-21T19:00:12.308Z,86.44
2019-01-21T19:02:59.562Z,86.47
2019-01-21T19:05:31.090Z,86.92
2019-01-21T19:08:02.069Z,86.16
2019-01-21T19:10:33.048Z,86.08
2019-01-21T19:13:04.136Z,86.22
2019-01-21T19:15:35.171Z,86.19
2019-01-21T19:18:06.362Z,86.11
2019-01-21T19:20:37.419Z,86.53
2019-01-21T19:23:08.633Z,86.44
2019-01-21T19:25:40.242Z,87.03
2019-01-21T19:28:11.312Z,86.97
2019-01-21T19:30:42.509Z,86.82
2019-01-21T19:33:13.623Z,86.78
2019-01-21T19:35:45.125Z,86.81
2019-01-21T19:38:16.425Z,86.75
2019-01-21T19:40:47.598Z,86.63
2019-01-21T19:43:18.712Z,86.50
2019-01-21T19:45:49.926Z,86.54
2019-01-21T19:48:21.039Z,86.52
2019-01-21T19:50:52.090Z,86.77
2019-01-21T19:53:23.502Z,87.00
2019-01-21T19:55:54.986Z,86.92
2019-01-21T19:58:26.301Z,86.94
2019-01-21T20:00:57.321Z,86.98
2019-01-21T20:03:29.303Z,86.80
2019-01-21T20:06:00.539Z,86.45
2019-01-21T20:08:32.805Z,86.29
2019-01-21T20:11:04.903Z,86.31
2019-01-21T20:13:41.644Z,86.28
2019-01-21T20:16:12.758Z,86.02
2019-01-21T20:18:44.273Z,85.77
2019-01-21T20:21:16.578Z,85.82
2019-01-21T20:23:50.015Z,86.02
2019-01-21T20:26:22.109Z,86.12
2019-01-21T20:28:53.387Z,86.04
2019-01-21T20:31:24.501Z,86.03
2019-01-21T20:33:58.356Z,86.44
2019-01-21T20:36:30.637Z,86.48
2019-01-21T20:39:02.605Z,86.37
2019-01-21T20:41:35.745Z,86.17
2019-01-21T20:44:07.597Z,85.89
2019-01-21T20:46:39.830Z,85.95
2019-01-21T20:49:10.983Z,85.87
2019-01-21T20:51:42.638Z,85.90
2019-01-21T20:54:15.993Z,86.17
2019-01-21T20:56:48.943Z,86.07
2019-01-21T20:59:20.718Z,86.14
2019-01-21T21:01:54.311Z,86.13
2019-01-21T21:04:25.443Z,86.19
2019-01-21T21:06:59.410Z,86.48
2019-01-21T21:09:31.552Z,86.29
2019-01-21T21:12:03.409Z,86.43
2019-01-21T21:14:35.728Z,86.44
2019-01-21T21:17:08.790Z,86.37
2019-01-21T21:19:42.923Z,86.42
2019-01-21T21:22:21.032Z,86.05
2019-01-21T21:24:52.949Z,86.21
2019-01-21T21:27:25.415Z,86.90
2019-01-21T21:30:00.279Z,87.04
2019-01-21T21:32:32.366Z,86.83
2019-01-21T21:35:08.190Z,86.70
2019-01-21T21:37:44.394Z,86.42
2019-01-21T21:40:17.606Z,86.07
2019-01-21T21:42:57.187Z,86.18
2019-01-21T21:45:28.509Z,86.07
2019-01-21T21:48:03.019Z,85.94
2019-01-21T21:50:39.991Z,85.80
2019-01-21T21:53:11.495Z,86.06
2019-01-21T21:55:47.094Z,86.52
2019-01-21T21:58:23.170Z,86.66
2019-01-21T22:01:02.059Z,86.76
2019-01-21T22:03:40.423Z,86.99
2019-01-21T22:06:13.356Z,87.55
2019-01-21T22:08:47.104Z,87.41
2019-01-21T22:11:22.426Z,87.50
2019-01-21T22:13:57.194Z,87.58
2019-01-21T22:16:29.458Z,87.45
2019-01-21T22:19:06.328Z,87.37
2019-01-21T22:21:38.800Z,87.30
2019-01-21T22:24:12.305Z,87.33
2019-01-21T22:26:46.280Z,87.44
2019-01-21T22:29:21.387Z,87.62
2019-01-21T22:31:55.910Z,87.87
2019-01-21T22:34:28.742Z,88.07
2019-01-21T22:37:02.134Z,88.10
2019-01-21T22:39:38.898Z,88.12
2019-01-21T22:42:15.301Z,88.05
2019-01-21T22:44:51.005Z,87.93
2019-01-21T22:47:23.369Z,88.21
2019-01-21T22:49:54.983Z,88.61
2019-01-21T22:52:26.076Z,88.72
2019-01-21T22:55:01.345Z,89.03
2019-01-21T22:57:32.742Z,89.43
2019-01-21T23:00:11.146Z,89.32
2019-01-21T23:02:46.059Z,89.21
2019-01-21T23:05:21.654Z,89.50
2019-01-21T23:07:55.950Z,89.28
2019-01-21T23:10:27.955Z,89.04
2019-01-21T23:12:59.420Z,88.74
2019-01-21T23:15:32.611Z,88.56
2019-01-21T23:18:04.521Z,88.63
2019-01-21T23:20:38.181Z,88.49
2019-01-21T23:23:10.913Z,88.48
2019-01-21T23:25:44.626Z,88.26
2019-01-21T23:28:16.765Z,88.09
2019-01-21T23:30:53.787Z,88.01
2019-01-21T23:33:26.110Z,87.81
2019-01-21T23:35:59.986Z,87.86
2019-01-21T23:38:32.714Z,88.00
2019-01-21T23:41:04.294Z,88.06
2019-01-21T23:43:35.746Z,87.90
2019-01-21T23:46:08.905Z,87.66
2019-01-21T23:48:41.151Z,87.34
2019-01-21T23:51:14.505Z,87.20
2019-01-21T23:53:49.570Z,86.63
2019-01-21T23:56:23.255Z,86.36
2019-01-21T23:58:56.272Z,86.40
